ADDS METAR Data

Data at: 2340 UTC 26 May 2018

METAR for:KORD (Chicago/O'Hare Intl, IL, US)
Text:KORD 262251Z 28007KT 10SM FEW070 FEW250 32/15 A2972 RMK AO2 SLP059 T03170150
Temperature: 31.7°C ( 89°F)
Dewpoint: 15.0°C ( 59°F) [RH = 36%]
Pressure (altimeter):29.72 inches Hg (1006.5 mb) [Sea level pressure: 1005.9 mb]
Winds:from the W (280 degrees) at 8 MPH (7 knots; 3.6 m/s)
Visibility:10 or more sm (16+ km)
Ceiling:at least 12,000 feet AGL
Clouds: few clouds at 7000 feet AGL, few clouds at 25000 feet AGL